createdAt,value
2023-11-12T00:00:13.262Z,17.42
2023-11-12T00:02:40.579Z,18.83
2023-11-12T00:05:12.824Z,20.52
2023-11-12T00:07:40.124Z,22.42
2023-11-12T00:10:12.919Z,24.17
2023-11-12T00:12:43.290Z,19.23
2023-11-12T00:15:10.895Z,18.88
2023-11-12T00:17:42.162Z,19.45
2023-11-12T00:20:16.500Z,18.10
2023-11-12T00:22:44.891Z,19.35
2023-11-12T00:25:14.069Z,18.80
2023-11-12T00:27:41.690Z,27.20
2023-11-12T00:30:10.656Z,23.27
2023-11-12T00:32:38.311Z,23.50
2023-11-12T00:35:06.371Z,23.50
2023-11-12T00:37:33.979Z,19.67
2023-11-12T00:40:01.581Z,21.13
2023-11-12T00:42:28.831Z,18.77
2023-11-12T00:44:56.387Z,19.80
2023-11-12T00:47:23.852Z,19.88
2023-11-12T00:49:52.469Z,20.85
2023-11-12T00:52:19.662Z,22.33
2023-11-12T00:54:46.842Z,28.55
2023-11-12T00:57:14.185Z,24.58
2023-11-12T00:59:42.109Z,25.92
2023-11-12T01:02:12.009Z,22.17
2023-11-12T01:04:39.189Z,25.27
2023-11-12T01:07:06.412Z,25.10
2023-11-12T01:09:35.857Z,24.20
2023-11-12T01:12:03.339Z,28.13
2023-11-12T01:14:30.542Z,26.10
2023-11-12T01:16:57.768Z,23.90
2023-11-12T01:19:24.950Z,27.67
2023-11-12T01:21:52.160Z,32.63
2023-11-12T01:24:20.947Z,30.77
2023-11-12T01:26:48.157Z,31.00
2023-11-12T01:29:15.583Z,30.55
2023-11-12T01:31:42.872Z,26.35
2023-11-12T01:34:10.131Z,29.13
2023-11-12T01:36:37.343Z,33.80
2023-11-12T01:39:08.590Z,30.95
2023-11-12T01:41:36.263Z,35.17
2023-11-12T01:44:03.826Z,31.58
2023-11-12T01:46:31.889Z,34.55
2023-11-12T01:49:00.933Z,33.35
2023-11-12T01:51:30.869Z,32.75
2023-11-12T01:54:00.326Z,33.58
2023-11-12T01:56:27.969Z,32.75
2023-11-12T01:58:58.769Z,39.28
2023-11-12T02:01:26.138Z,35.33
2023-11-12T02:03:54.337Z,36.28
2023-11-12T02:06:21.715Z,39.63
2023-11-12T02:08:48.933Z,32.83
2023-11-12T02:11:16.926Z,41.85
2023-11-12T02:13:44.687Z,35.35
2023-11-12T02:16:12.166Z,35.03
2023-11-12T02:18:45.024Z,38.63
2023-11-12T02:21:12.176Z,38.08
2023-11-12T02:23:39.816Z,38.88
2023-11-12T02:26:06.994Z,35.70
2023-11-12T02:28:34.231Z,36.25
2023-11-12T02:31:01.593Z,44.63
2023-11-12T02:33:29.295Z,37.20
2023-11-12T02:35:57.107Z,32.53
2023-11-12T02:38:25.578Z,35.97
2023-11-12T02:40:52.919Z,38.63
2023-11-12T02:43:21.222Z,34.00
2023-11-12T02:45:48.993Z,40.60
2023-11-12T02:48:16.697Z,35.15
2023-11-12T02:50:44.412Z,37.03
2023-11-12T02:53:13.046Z,35.33
2023-11-12T02:55:43.101Z,37.90
2023-11-12T02:58:11.367Z,37.53
2023-11-12T03:00:39.238Z,37.47
2023-11-12T03:03:06.648Z,38.10
2023-11-12T03:05:33.953Z,35.67
2023-11-12T03:08:01.219Z,35.80
2023-11-12T03:10:29.230Z,36.58
2023-11-12T03:12:56.444Z,35.67
2023-11-12T03:15:25.375Z,39.60
2023-11-12T03:17:53.765Z,39.33
2023-11-12T03:20:21.410Z,35.33
2023-11-12T03:22:48.647Z,39.72
2023-11-12T03:25:16.125Z,38.08
2023-11-12T03:27:43.514Z,40.63
2023-11-12T03:30:11.899Z,34.63
2023-11-12T03:32:39.485Z,35.83
2023-11-12T03:35:07.656Z,36.42
2023-11-12T03:37:34.890Z,36.40
2023-11-12T03:40:02.130Z,36.85
2023-11-12T03:42:29.377Z,35.05
2023-11-12T03:44:58.157Z,38.75
2023-11-12T03:47:25.995Z,44.05
2023-11-12T03:49:53.195Z,43.47
2023-11-12T03:52:20.355Z,38.40
2023-11-12T03:54:47.595Z,37.60
2023-11-12T03:57:15.567Z,36.17
2023-11-12T03:59:42.884Z,42.83
2023-11-12T04:02:10.121Z,38.83
2023-11-12T04:04:37.580Z,41.67
2023-11-12T04:07:05.171Z,36.70
2023-11-12T04:09:32.411Z,38.05
2023-11-12T04:11:59.674Z,38.53
2023-11-12T04:14:26.892Z,36.75
2023-11-12T04:16:54.111Z,44.55
2023-11-12T04:19:21.302Z,43.40
2023-11-12T04:21:48.978Z,43.40
2023-11-12T04:24:16.527Z,40.67
2023-11-12T04:26:44.293Z,42.08
2023-11-12T04:29:14.278Z,43.00
2023-11-12T04:31:41.695Z,44.35
2023-11-12T04:34:08.925Z,43.85
2023-11-12T04:36:39.098Z,45.13
2023-11-12T04:39:08.483Z,49.10
2023-11-12T04:41:35.710Z,44.67
2023-11-12T04:44:02.881Z,50.22
2023-11-12T04:46:31.267Z,49.55
2023-11-12T04:48:59.885Z,47.95
2023-11-12T04:51:27.891Z,44.30
2023-11-12T04:53:55.352Z,46.20
2023-11-12T04:56:22.595Z,44.80
2023-11-12T04:58:50.453Z,61.40
2023-11-12T05:01:18.200Z,53.03
2023-11-12T05:03:46.945Z,43.13
2023-11-12T05:06:15.493Z,47.40
2023-11-12T05:08:43.223Z,45.22
2023-11-12T05:11:10.466Z,46.83
2023-11-12T05:13:38.277Z,45.25
2023-11-12T05:16:06.202Z,44.22
2023-11-12T05:18:33.406Z,49.45
2023-11-12T05:21:00.580Z,48.88
2023-11-12T05:23:28.064Z,48.95
2023-11-12T05:25:59.312Z,47.95
2023-11-12T05:28:28.290Z,54.28
2023-11-12T05:30:58.547Z,47.67
2023-11-12T05:33:25.852Z,47.53
2023-11-12T05:35:53.038Z,47.80
2023-11-12T05:38:20.213Z,49.00
2023-11-12T05:40:47.531Z,45.55
2023-11-12T05:43:14.792Z,50.47
2023-11-12T05:45:42.000Z,50.55
2023-11-12T05:48:11.661Z,47.30
2023-11-12T05:50:39.617Z,48.92
2023-11-12T05:53:06.813Z,45.38
2023-11-12T05:55:34.173Z,46.83
2023-11-12T05:58:01.469Z,44.53
2023-11-12T06:00:28.842Z,44.67
2023-11-12T06:02:56.759Z,43.80
2023-11-12T06:05:23.985Z,49.35
2023-11-12T06:07:51.163Z,49.75
2023-11-12T06:10:18.719Z,44.30
2023-11-12T06:12:45.982Z,46.75
2023-11-12T06:15:13.544Z,45.85
2023-11-12T06:17:40.817Z,50.40
2023-11-12T06:20:08.721Z,50.28
2023-11-12T06:22:35.960Z,48.13
2023-11-12T06:25:03.684Z,46.22
2023-11-12T06:27:30.924Z,47.38
2023-11-12T06:29:58.969Z,40.75
2023-11-12T06:32:26.179Z,47.17
2023-11-12T06:34:53.462Z,46.47
2023-11-12T06:37:20.694Z,45.20
2023-11-12T06:39:47.946Z,43.00
2023-11-12T06:42:15.773Z,42.05
2023-11-12T06:44:43.376Z,44.75
2023-11-12T06:47:10.561Z,37.65
2023-11-12T06:49:37.711Z,45.83
2023-11-12T06:52:05.476Z,45.75
2023-11-12T06:54:32.692Z,44.15
2023-11-12T06:57:00.832Z,41.10
2023-11-12T06:59:29.339Z,43.20
2023-11-12T07:01:56.567Z,40.88
2023-11-12T07:04:24.397Z,42.97
2023-11-12T07:07:01.929Z,40.47
2023-11-12T07:09:36.889Z,39.90
2023-11-12T07:12:05.600Z,39.40
2023-11-12T07:14:33.005Z,41.97
2023-11-12T07:17:00.576Z,39.90
2023-11-12T07:19:27.922Z,37.60
2023-11-12T07:21:55.518Z,45.08
2023-11-12T07:24:22.838Z,59.60
2023-11-12T07:26:50.130Z,58.83
2023-11-12T07:29:17.388Z,61.17
2023-11-12T07:31:44.667Z,38.60
2023-11-12T07:34:11.976Z,39.00
2023-11-12T07:36:39.219Z,43.60
2023-11-12T07:39:08.131Z,42.60
2023-11-12T07:41:35.828Z,40.70
2023-11-12T07:44:03.578Z,37.50
2023-11-12T07:46:30.852Z,35.50
2023-11-12T07:48:58.471Z,41.40
2023-11-12T07:51:25.829Z,37.13
2023-11-12T07:53:53.174Z,38.08
2023-11-12T07:56:24.687Z,35.80
2023-11-12T07:58:55.135Z,38.28
2023-11-12T08:01:22.351Z,33.70
2023-11-12T08:03:49.611Z,36.70
2023-11-12T08:06:16.910Z,36.53
2023-11-12T08:08:44.122Z,41.22
2023-11-12T08:11:11.316Z,31.20
2023-11-12T08:13:39.977Z,33.33
2023-11-12T08:16:09.195Z,32.95
2023-11-12T08:18:38.079Z,39.60
2023-11-12T08:21:06.626Z,35.33
2023-11-12T08:23:33.862Z,36.53
2023-11-12T08:26:03.283Z,30.70
2023-11-12T08:28:30.754Z,32.50
2023-11-12T08:30:58.001Z,32.90
2023-11-12T08:33:25.298Z,36.60
2023-11-12T08:35:53.512Z,32.80
2023-11-12T08:38:20.821Z,32.38
2023-11-12T08:40:48.032Z,36.90
2023-11-12T08:43:15.930Z,30.70
2023-11-12T08:45:43.216Z,31.88
2023-11-12T08:48:10.488Z,46.97
2023-11-12T08:50:37.757Z,42.40
2023-11-12T08:53:05.017Z,34.95
2023-11-12T08:55:32.790Z,32.38
2023-11-12T08:58:00.085Z,30.95
2023-11-12T09:00:27.293Z,30.55
2023-11-12T09:02:54.614Z,28.25
2023-11-12T09:05:21.939Z,29.55
2023-11-12T09:07:49.139Z,30.10
2023-11-12T09:10:16.330Z,32.28
2023-11-12T09:12:43.678Z,27.05
2023-11-12T09:15:12.293Z,33.60
2023-11-12T09:17:39.612Z,34.97
2023-11-12T09:20:14.515Z,34.03
2023-11-12T09:22:41.931Z,31.00
2023-11-12T09:25:12.078Z,22.90
2023-11-12T09:27:39.738Z,23.60
2023-11-12T09:30:09.682Z,29.98
2023-11-12T09:32:37.215Z,23.98
2023-11-12T09:35:07.050Z,20.95
2023-11-12T09:37:34.392Z,22.67
2023-11-12T09:40:02.324Z,25.33
2023-11-12T09:42:30.188Z,24.08
2023-11-12T09:45:00.632Z,17.27
2023-11-12T09:48:04.391Z,21.25
2023-11-12T09:50:32.415Z,20.63
2023-11-12T09:53:04.254Z,24.50
2023-11-12T09:55:32.058Z,23.50
2023-11-12T09:58:02.601Z,24.55
2023-11-12T10:00:35.507Z,22.52
2023-11-12T10:05:35.845Z,24.15
2023-11-12T10:08:05.844Z,19.80
2023-11-12T10:10:34.687Z,23.70
2023-11-12T10:13:05.491Z,23.08
2023-11-12T10:15:35.145Z,18.38
2023-11-12T10:18:04.845Z,18.23
2023-11-12T10:20:40.982Z,21.13
2023-11-12T10:23:32.621Z,18.50
2023-11-12T10:26:00.935Z,22.90
2023-11-12T10:28:35.238Z,19.40
2023-11-12T10:31:03.147Z,20.75
2023-11-12T10:33:30.768Z,21.33
2023-11-12T10:36:08.979Z,21.65
2023-11-12T10:38:53.239Z,19.63
2023-11-12T10:41:20.707Z,20.50
2023-11-12T10:44:00.107Z,17.60
2023-11-12T10:46:29.357Z,23.33
2023-11-12T10:48:57.130Z,17.73
2023-11-12T10:51:26.535Z,16.40
2023-11-12T10:53:57.623Z,18.55
2023-11-12T10:56:25.566Z,17.05
2023-11-12T10:58:57.616Z,21.38
2023-11-12T11:01:27.166Z,21.87
2023-11-12T11:03:55.774Z,18.88
2023-11-12T11:06:25.755Z,20.00
2023-11-12T11:08:52.943Z,18.95
2023-11-12T11:11:22.368Z,14.80
2023-11-12T11:13:49.632Z,19.35
2023-11-12T11:16:48.681Z,21.15
2023-11-12T11:19:16.069Z,21.48
2023-11-12T11:22:22.243Z,25.13
2023-11-12T11:24:49.460Z,16.38
2023-11-12T11:27:20.059Z,20.63
2023-11-12T11:30:15.209Z,16.58
2023-11-12T11:32:58.760Z,15.40
2023-11-12T11:35:27.836Z,21.23
2023-11-12T11:38:07.056Z,13.82
2023-11-12T11:40:35.872Z,15.85
2023-11-12T11:43:24.698Z,14.70
2023-11-12T11:46:14.503Z,18.38
2023-11-12T11:48:44.743Z,21.85
2023-11-12T11:51:39.090Z,22.23
2023-11-12T11:54:07.742Z,18.77
2023-11-12T11:56:35.354Z,14.02
2023-11-12T11:59:03.058Z,16.08
2023-11-12T12:01:30.612Z,17.35
2023-11-12T12:04:07.119Z,17.85
2023-11-12T12:06:34.759Z,14.68
2023-11-12T12:09:02.166Z,15.10
2023-11-12T12:11:29.409Z,13.35
2023-11-12T12:14:01.908Z,11.38
2023-11-12T12:16:34.504Z,14.63
2023-11-12T12:19:03.447Z,13.68
2023-11-12T12:21:35.322Z,16.30
2023-11-12T12:24:07.140Z,20.02
2023-11-12T12:26:34.988Z,13.65
2023-11-12T12:29:02.170Z,12.20
2023-11-12T12:31:29.977Z,21.88
2023-11-12T12:34:09.384Z,14.35
2023-11-12T12:36:37.663Z,13.52
2023-11-12T12:39:13.516Z,14.02
2023-11-12T12:41:40.779Z,13.38
2023-11-12T12:44:28.852Z,11.68
2023-11-12T12:46:56.421Z,12.55
2023-11-12T12:49:34.768Z,11.82
2023-11-12T12:52:04.141Z,9.77
2023-11-12T12:54:32.076Z,13.07
2023-11-12T12:57:00.609Z,13.88
2023-11-12T12:59:36.272Z,9.57
2023-11-12T13:02:04.875Z,10.65
2023-11-12T13:04:34.109Z,14.95
2023-11-12T13:07:03.052Z,12.30
2023-11-12T13:09:33.020Z,15.15
2023-11-12T13:12:00.350Z,13.15
2023-11-12T13:14:27.526Z,11.75
2023-11-12T13:16:55.644Z,13.50
2023-11-12T13:19:24.444Z,11.93
2023-11-12T13:21:57.381Z,13.85
2023-11-12T13:24:30.445Z,11.90
2023-11-12T13:26:58.880Z,10.93
2023-11-12T13:29:28.309Z,13.02
2023-11-12T13:31:57.673Z,9.85
2023-11-12T13:34:25.283Z,13.48
2023-11-12T13:36:52.772Z,8.98
2023-11-12T13:39:20.165Z,11.50
2023-11-12T13:41:48.086Z,9.57
2023-11-12T13:44:16.460Z,9.98
2023-11-12T13:46:44.105Z,15.07
2023-11-12T13:49:11.898Z,10.30
2023-11-12T13:51:42.286Z,10.05
2023-11-12T13:54:11.522Z,13.48
2023-11-12T13:56:40.190Z,10.43
2023-11-12T13:59:09.938Z,8.98
2023-11-12T14:01:37.164Z,11.48
2023-11-12T14:04:08.707Z,9.85
2023-11-12T14:06:37.400Z,9.85
2023-11-12T14:09:05.155Z,8.20
2023-11-12T14:11:33.784Z,13.05
2023-11-12T14:14:01.425Z,13.52
2023-11-12T14:16:29.961Z,15.13
2023-11-12T14:18:57.230Z,16.17
2023-11-12T14:21:25.148Z,11.65
2023-11-12T14:23:52.414Z,14.18
2023-11-12T14:26:21.260Z,22.17
2023-11-12T14:28:50.278Z,16.83
2023-11-12T14:31:21.693Z,16.27
2023-11-12T14:33:50.384Z,11.90
2023-11-12T14:36:17.711Z,12.77
2023-11-12T14:38:44.942Z,11.30
2023-11-12T14:41:12.298Z,14.05
2023-11-12T14:43:40.970Z,14.80
2023-11-12T14:46:09.058Z,14.18
2023-11-12T14:48:36.409Z,15.88
2023-11-12T14:51:06.472Z,19.73
2023-11-12T14:53:34.013Z,21.25
2023-11-12T14:56:01.329Z,14.95
2023-11-12T14:58:28.542Z,12.85
2023-11-12T15:00:55.943Z,14.43
2023-11-12T15:03:26.286Z,13.80
2023-11-12T15:05:53.592Z,10.95
2023-11-12T15:08:21.037Z,17.23
2023-11-12T15:10:48.620Z,19.67
2023-11-12T15:13:15.766Z,12.73
2023-11-12T15:15:43.329Z,12.35
2023-11-12T15:18:14.195Z,12.15
2023-11-12T15:20:43.082Z,12.82
2023-11-12T15:23:10.270Z,14.45
2023-11-12T15:25:39.148Z,11.82
2023-11-12T15:28:06.415Z,15.48
2023-11-12T15:30:34.584Z,24.73
2023-11-12T15:33:01.937Z,21.85
2023-11-12T15:35:29.163Z,13.73
2023-11-12T15:37:56.378Z,15.35
2023-11-12T15:40:24.552Z,33.40
2023-11-12T15:42:56.682Z,28.48
2023-11-12T15:45:26.782Z,17.90
2023-11-12T15:47:54.729Z,17.10
2023-11-12T15:50:30.249Z,13.65
2023-11-12T15:53:01.451Z,13.48
2023-11-12T15:55:29.133Z,15.07
2023-11-12T15:57:56.448Z,16.17
2023-11-12T16:00:25.209Z,13.23
2023-11-12T16:02:56.939Z,10.35
2023-11-12T16:05:28.947Z,23.40
2023-11-12T16:07:57.480Z,32.05
2023-11-12T16:10:24.654Z,32.63
2023-11-12T16:12:51.964Z,13.77
2023-11-12T16:15:20.163Z,16.92
2023-11-12T16:17:49.678Z,16.98
2023-11-12T16:20:17.063Z,21.40
2023-11-12T16:22:47.646Z,18.27
2023-11-12T16:25:15.389Z,23.80
2023-11-12T16:27:42.688Z,35.75
2023-11-12T16:30:10.630Z,36.30
2023-11-12T16:32:37.919Z,25.58
2023-11-12T16:35:07.138Z,24.17
2023-11-12T16:37:34.470Z,19.98
2023-11-12T16:40:01.955Z,21.35
2023-11-12T16:42:29.397Z,22.83
2023-11-12T16:44:57.747Z,41.22
2023-11-12T16:47:25.375Z,24.42
2023-11-12T16:49:54.654Z,20.75
2023-11-12T16:52:22.773Z,14.73
2023-11-12T16:54:50.194Z,13.30
2023-11-12T16:57:17.609Z,12.48
2023-11-12T16:59:44.813Z,13.18
2023-11-12T17:02:14.951Z,13.88
2023-11-12T17:04:42.539Z,11.15
2023-11-12T17:07:12.139Z,17.90
2023-11-12T17:09:41.979Z,22.30
2023-11-12T17:12:13.707Z,15.88
2023-11-12T17:14:44.126Z,17.50
2023-11-12T17:17:12.489Z,20.25
2023-11-12T17:19:39.736Z,17.58
2023-11-12T17:22:08.704Z,15.63
2023-11-12T17:24:36.705Z,15.15
2023-11-12T17:27:05.964Z,13.27
2023-11-12T17:29:33.294Z,11.75
2023-11-12T17:32:00.534Z,12.60
2023-11-12T17:34:27.702Z,13.40
2023-11-12T17:37:04.481Z,52.38
2023-11-12T17:39:31.688Z,151.80
2023-11-12T17:41:59.037Z,98.28
2023-11-12T17:44:26.304Z,54.78
2023-11-12T17:46:58.100Z,31.77
2023-11-12T17:49:25.592Z,25.00
2023-11-12T17:51:52.803Z,29.52
2023-11-12T17:54:20.307Z,27.15
2023-11-12T17:56:48.931Z,17.58
2023-11-12T17:59:16.815Z,15.00
2023-11-12T18:01:44.343Z,13.50
2023-11-12T18:04:11.821Z,11.65
2023-11-12T18:06:44.067Z,11.30
2023-11-12T18:09:12.807Z,12.90
2023-11-12T18:11:40.077Z,23.88
2023-11-12T18:14:07.286Z,78.45
2023-11-12T18:16:37.929Z,136.65
2023-11-12T18:19:05.225Z,62.70
2023-11-12T18:21:32.556Z,22.38
2023-11-12T18:24:01.313Z,13.68
2023-11-12T18:26:30.231Z,14.00
2023-11-12T18:28:57.569Z,15.07
2023-11-12T18:31:26.103Z,14.05
2023-11-12T18:33:53.681Z,15.27
2023-11-12T18:36:20.938Z,15.05
2023-11-12T18:38:48.102Z,17.05
2023-11-12T18:41:15.692Z,22.67
2023-11-12T18:43:42.861Z,21.55
2023-11-12T18:46:10.242Z,25.67
2023-11-12T18:48:41.166Z,23.42
2023-11-12T18:51:08.513Z,18.58
2023-11-12T18:53:35.886Z,17.23
2023-11-12T18:56:08.132Z,17.92
2023-11-12T18:58:35.908Z,18.17
2023-11-12T19:01:04.060Z,20.45
2023-11-12T19:03:31.349Z,15.93
2023-11-12T19:05:58.687Z,14.52
2023-11-12T19:08:25.828Z,15.07
2023-11-12T19:10:53.056Z,17.55
2023-11-12T19:13:20.296Z,26.48
2023-11-12T19:15:47.606Z,23.50
2023-11-12T19:18:14.914Z,16.90
2023-11-12T19:20:42.182Z,11.90
2023-11-12T19:23:09.802Z,14.73
2023-11-12T19:25:40.300Z,12.35
2023-11-12T19:28:07.628Z,14.77
2023-11-12T19:30:35.842Z,14.15
2023-11-12T19:33:03.607Z,12.85
2023-11-12T19:35:31.948Z,14.05
2023-11-12T19:37:59.324Z,13.93
2023-11-12T19:40:26.904Z,14.25
2023-11-12T19:42:54.464Z,14.65
2023-11-12T19:45:22.755Z,15.60
2023-11-12T19:47:55.065Z,16.52
2023-11-12T19:50:23.549Z,16.02
2023-11-12T19:52:51.138Z,18.23
2023-11-12T19:55:20.346Z,13.48
2023-11-12T19:57:52.706Z,12.60
2023-11-12T20:02:51.195Z,23.30
2023-11-12T20:05:18.968Z,17.60
2023-11-12T20:07:46.172Z,13.90
2023-11-12T20:10:14.294Z,15.18
2023-11-12T20:12:41.857Z,14.93
2023-11-12T20:15:10.028Z,18.13
2023-11-12T20:17:39.104Z,14.43
2023-11-12T20:20:07.061Z,13.40
2023-11-12T20:22:34.283Z,14.73
2023-11-12T20:25:01.558Z,13.82
2023-11-12T20:27:28.955Z,24.10
2023-11-12T20:29:57.350Z,19.92
2023-11-12T20:32:25.339Z,17.40
2023-11-12T20:34:53.593Z,15.80
2023-11-12T20:37:20.893Z,16.80
2023-11-12T20:39:50.625Z,14.57
2023-11-12T20:42:17.917Z,96.22
2023-11-12T20:44:45.244Z,27.83
2023-11-12T20:47:13.615Z,44.08
2023-11-12T20:49:43.413Z,29.98
2023-11-12T20:52:10.946Z,20.58
2023-11-12T20:54:38.488Z,15.10
2023-11-12T20:57:07.220Z,14.65
2023-11-12T20:59:34.800Z,13.90
2023-11-12T21:02:10.353Z,13.70
2023-11-12T21:04:45.988Z,16.67
2023-11-12T21:07:13.919Z,17.00
2023-11-12T21:09:42.790Z,13.52
2023-11-12T21:12:10.342Z,18.10
2023-11-12T21:14:38.561Z,12.80
2023-11-12T21:17:05.844Z,16.48
2023-11-12T21:19:34.924Z,13.35
2023-11-12T21:22:02.506Z,12.35
2023-11-12T21:24:30.227Z,17.13
2023-11-12T21:26:58.677Z,12.52
2023-11-12T21:29:26.512Z,15.02
2023-11-12T21:31:55.234Z,12.07
2023-11-12T21:34:23.016Z,15.55
2023-11-12T21:36:51.052Z,19.48
2023-11-12T21:39:20.309Z,11.40
2023-11-12T21:41:49.207Z,10.88
2023-11-12T21:44:18.844Z,11.93
2023-11-12T21:46:47.861Z,14.98
2023-11-12T21:49:15.838Z,13.65
2023-11-12T21:51:44.173Z,18.35
2023-11-12T21:54:11.899Z,19.38
2023-11-12T21:56:39.096Z,17.95
2023-11-12T21:59:06.973Z,13.70
2023-11-12T22:01:34.260Z,13.25
2023-11-12T22:04:03.163Z,16.42
2023-11-12T22:06:30.688Z,23.42
2023-11-12T22:08:57.900Z,25.50
2023-11-12T22:11:26.526Z,18.48
2023-11-12T22:13:54.680Z,12.73
2023-11-12T22:16:21.987Z,35.20
2023-11-12T22:18:49.263Z,30.08
2023-11-12T22:21:17.753Z,39.15
2023-11-12T22:23:45.426Z,23.08
2023-11-12T22:26:12.583Z,14.07
2023-11-12T22:28:39.867Z,18.48
2023-11-12T22:31:07.226Z,32.67
2023-11-12T22:33:34.505Z,14.70
2023-11-12T22:36:01.669Z,31.25
2023-11-12T22:38:28.830Z,23.85
2023-11-12T22:40:57.406Z,13.60
2023-11-12T22:43:26.010Z,18.48
2023-11-12T22:45:53.450Z,10.02
2023-11-12T22:48:20.657Z,12.05
2023-11-12T22:50:47.997Z,13.90
2023-11-12T22:53:16.246Z,21.08
2023-11-12T22:55:43.703Z,13.45
2023-11-12T22:58:11.325Z,12.48
2023-11-12T23:00:50.187Z,14.45
2023-11-12T23:03:18.719Z,14.98
2023-11-12T23:05:50.201Z,13.80
2023-11-12T23:08:17.408Z,21.73
2023-11-12T23:10:45.894Z,9.98
2023-11-12T23:13:14.365Z,12.50
2023-11-12T23:15:44.240Z,16.05
2023-11-12T23:18:12.997Z,16.10
2023-11-12T23:20:40.857Z,12.25
2023-11-12T23:23:08.205Z,13.48
2023-11-12T23:25:35.417Z,12.32
2023-11-12T23:28:02.723Z,13.35
2023-11-12T23:30:30.171Z,14.02
2023-11-12T23:32:57.652Z,10.70
2023-11-12T23:35:27.237Z,11.57
2023-11-12T23:37:54.806Z,12.35
2023-11-12T23:40:22.080Z,12.63
2023-11-12T23:42:49.482Z,9.32
2023-11-12T23:45:17.887Z,8.60
2023-11-12T23:47:45.104Z,10.07
2023-11-12T23:50:12.624Z,11.63
2023-11-12T23:52:39.965Z,13.82
2023-11-12T23:55:07.886Z,15.13
2023-11-12T23:57:35.861Z,10.40
